createdAt,value
2023-04-01T00:02:11.138Z,77.07
2023-04-01T00:04:39.431Z,77.11
2023-04-01T00:07:07.473Z,77.26
2023-04-01T00:09:36.053Z,78.10
2023-04-01T00:12:03.945Z,78.91
2023-04-01T00:14:31.856Z,78.64
2023-04-01T00:17:01.279Z,78.34
2023-04-01T00:19:30.025Z,78.57
2023-04-01T00:21:58.197Z,79.13
2023-04-01T00:24:27.107Z,80.26
2023-04-01T00:26:55.019Z,79.02
2023-04-01T00:29:25.061Z,79.37
2023-04-01T00:31:53.050Z,79.97
2023-04-01T00:34:22.323Z,79.81
2023-04-01T00:36:50.226Z,78.70
2023-04-01T00:39:18.111Z,79.38
2023-04-01T00:41:46.066Z,78.85
2023-04-01T00:44:19.233Z,79.44
2023-04-01T00:46:47.447Z,79.47
2023-04-01T00:49:19.127Z,78.65
2023-04-01T00:51:52.277Z,79.88
2023-04-01T00:54:22.745Z,80.14
2023-04-01T00:56:56.839Z,80.20
2023-04-01T00:59:27.616Z,80.41
2023-04-01T01:01:55.792Z,79.65
2023-04-01T01:04:25.515Z,79.43
2023-04-01T01:07:05.549Z,79.78
2023-04-01T01:09:43.120Z,78.25
2023-04-01T01:12:15.989Z,79.00
2023-04-01T01:14:58.763Z,79.13
2023-04-01T01:17:34.937Z,78.95
2023-04-01T01:20:35.380Z,80.33
2023-04-01T01:23:30.624Z,80.04
2023-04-01T01:26:16.283Z,79.75
2023-04-01T01:28:53.865Z,80.15
2023-04-01T01:31:27.609Z,79.81
2023-04-01T01:34:14.271Z,79.97
2023-04-01T01:36:46.469Z,81.42
2023-04-01T01:39:16.029Z,80.74
2023-04-01T01:41:47.816Z,80.12
2023-04-01T01:44:18.224Z,79.52
2023-04-01T01:46:47.427Z,81.16
2023-04-01T01:49:17.126Z,79.85
2023-04-01T01:51:46.485Z,79.30
2023-04-01T01:54:16.481Z,79.06
2023-04-01T01:56:47.296Z,78.92
2023-04-01T01:59:17.422Z,80.09
2023-04-01T02:01:48.813Z,79.86
2023-04-01T02:04:19.308Z,80.69
2023-04-01T02:06:55.199Z,79.75
2023-04-01T02:09:23.186Z,80.35
2023-04-01T02:11:54.635Z,80.64
2023-04-01T02:14:26.110Z,80.24
2023-04-01T02:16:59.282Z,80.97
2023-04-01T02:19:31.848Z,80.92
2023-04-01T02:22:06.337Z,80.77
2023-04-01T02:24:37.894Z,79.79
2023-04-01T02:27:06.877Z,79.72
2023-04-01T02:29:35.233Z,79.99
2023-04-01T02:32:04.773Z,80.72
2023-04-01T02:34:32.862Z,81.39
2023-04-01T02:37:02.769Z,79.87
2023-04-01T02:39:30.764Z,80.28
2023-04-01T02:41:58.663Z,79.00
2023-04-01T02:44:26.611Z,79.53
2023-04-01T02:46:54.745Z,79.54
2023-04-01T02:49:22.655Z,79.44
2023-04-01T02:51:50.559Z,78.97
2023-04-01T02:54:20.244Z,79.42
2023-04-01T02:56:48.377Z,78.80
2023-04-01T02:59:16.858Z,77.17
2023-04-01T03:01:44.866Z,77.08
2023-04-01T03:04:12.809Z,78.68
2023-04-01T03:06:40.809Z,78.63
2023-04-01T03:09:08.810Z,79.28
2023-04-01T03:11:38.075Z,80.10
2023-04-01T03:14:06.046Z,78.59
2023-04-01T03:16:34.027Z,79.10
2023-04-01T03:19:03.240Z,79.35
2023-04-01T03:21:31.494Z,78.83
2023-04-01T03:23:59.631Z,79.70
2023-04-01T03:26:28.854Z,80.10
2023-04-01T03:28:58.455Z,80.20
2023-04-01T03:31:26.712Z,80.54
2023-04-01T03:33:57.828Z,79.58
2023-04-01T03:36:25.946Z,80.76
2023-04-01T03:38:53.862Z,79.77
2023-04-01T03:41:29.678Z,80.05
2023-04-01T03:43:58.922Z,81.49
2023-04-01T03:46:27.232Z,80.58
2023-04-01T03:48:55.376Z,80.74
2023-04-01T03:51:23.228Z,80.37
2023-04-01T03:53:51.450Z,79.70
2023-04-01T03:56:19.463Z,80.15
2023-04-01T03:58:47.470Z,79.97
2023-04-01T04:01:18.875Z,80.23
2023-04-01T04:03:47.622Z,81.78
2023-04-01T04:06:16.652Z,81.39
2023-04-01T04:08:45.257Z,81.65
2023-04-01T04:11:13.832Z,81.20
2023-04-01T04:13:43.843Z,81.70
2023-04-01T04:16:12.618Z,81.80
2023-04-01T04:18:46.489Z,82.41
2023-04-01T04:21:15.969Z,82.99
2023-04-01T04:23:44.913Z,82.57
2023-04-01T04:26:16.535Z,81.14
2023-04-01T04:28:49.224Z,82.51
2023-04-01T04:31:21.020Z,83.05
2023-04-01T04:33:51.127Z,81.98
2023-04-01T04:36:19.843Z,81.91
2023-04-01T04:38:49.218Z,83.49
2023-04-01T04:41:18.746Z,82.33
2023-04-01T04:43:54.511Z,81.87
2023-04-01T04:46:23.640Z,82.55
2023-04-01T04:48:57.792Z,82.16
2023-04-01T04:51:26.194Z,81.34
2023-04-01T04:53:54.196Z,80.18
2023-04-01T04:56:31.759Z,82.12
2023-04-01T04:59:07.505Z,80.55
2023-04-01T05:01:44.519Z,80.52
2023-04-01T05:04:13.825Z,80.55
2023-04-01T05:06:41.818Z,80.32
2023-04-01T05:09:09.716Z,79.12
2023-04-01T05:11:37.980Z,79.10
2023-04-01T05:14:05.796Z,79.10
2023-04-01T05:16:34.701Z,79.48
2023-04-01T05:19:02.675Z,80.31
2023-04-01T05:21:32.094Z,79.55
2023-04-01T05:24:00.000Z,79.75
2023-04-01T05:26:28.624Z,79.63
2023-04-01T05:28:56.490Z,79.69
2023-04-01T05:31:25.232Z,79.95
2023-04-01T05:33:54.481Z,79.89
2023-04-01T05:36:22.391Z,79.87
2023-04-01T05:38:51.836Z,79.79
2023-04-01T05:41:21.148Z,79.98
2023-04-01T05:43:49.628Z,78.43
2023-04-01T05:46:35.941Z,78.88
2023-04-01T05:49:19.008Z,78.50
2023-04-01T05:51:47.157Z,79.32
2023-04-01T05:54:16.430Z,80.24
2023-04-01T05:56:47.637Z,79.83
2023-04-01T05:59:16.803Z,79.46
2023-04-01T06:01:44.998Z,79.40
2023-04-01T06:04:17.100Z,78.97
2023-04-01T06:06:46.172Z,78.80
2023-04-01T06:09:18.588Z,79.29
2023-04-01T06:12:25.860Z,79.48
2023-04-01T06:15:10.183Z,80.17
2023-04-01T06:17:53.557Z,78.73
2023-04-01T06:20:28.944Z,79.18
2023-04-01T06:23:20.666Z,78.43
2023-04-01T06:26:04.391Z,79.05
2023-04-01T06:29:01.075Z,78.77
2023-04-01T06:31:53.002Z,79.11
2023-04-01T06:34:43.746Z,78.20
2023-04-01T06:37:42.390Z,78.50
2023-04-01T06:40:28.164Z,78.60
2023-04-01T06:43:12.636Z,78.48
2023-04-01T06:46:03.262Z,78.43
2023-04-01T06:49:27.406Z,77.66
2023-04-01T06:52:25.128Z,77.62
2023-04-01T06:55:36.722Z,78.45
2023-04-01T06:58:36.580Z,77.91
2023-04-01T07:01:08.179Z,78.63
2023-04-01T07:03:41.997Z,78.74
2023-04-01T07:06:16.077Z,78.45
2023-04-01T07:08:55.746Z,77.88
2023-04-01T07:11:28.836Z,77.91
2023-04-01T07:14:21.791Z,78.74
2023-04-01T07:16:53.822Z,77.76
2023-04-01T07:19:27.961Z,77.60
2023-04-01T07:22:07.657Z,78.00
2023-04-01T07:24:56.055Z,78.94
2023-04-01T07:27:25.501Z,77.48
2023-04-01T07:29:57.891Z,77.49
2023-04-01T07:32:41.443Z,77.01
2023-04-01T07:35:19.014Z,78.40
2023-04-01T07:38:00.960Z,78.14
2023-04-01T07:40:36.405Z,78.08
2023-04-01T07:43:25.175Z,78.05
2023-04-01T07:46:18.258Z,79.36
2023-04-01T07:48:56.088Z,78.97
2023-04-01T07:51:29.291Z,77.88
2023-04-01T07:54:05.683Z,77.05
2023-04-01T07:56:42.011Z,77.58
2023-04-01T07:59:24.160Z,76.61
2023-04-01T08:02:09.368Z,77.06
2023-04-01T08:04:48.872Z,77.32
2023-04-01T08:07:21.426Z,77.31
2023-04-01T08:10:14.750Z,78.43
2023-04-01T08:13:22.960Z,76.90
2023-04-01T08:16:37.391Z,76.62
2023-04-01T08:19:17.708Z,76.88
2023-04-01T08:21:53.355Z,76.80
2023-04-01T08:24:37.144Z,77.34
2023-04-01T08:27:19.910Z,77.55
2023-04-01T08:29:53.449Z,78.15
2023-04-01T08:32:28.108Z,77.67
2023-04-01T08:35:11.818Z,77.50
2023-04-01T08:37:45.424Z,76.71
2023-04-01T08:40:35.842Z,76.07
2023-04-01T08:43:14.443Z,75.48
2023-04-01T08:45:59.087Z,75.59
2023-04-01T08:48:50.782Z,75.36
2023-04-01T08:51:45.555Z,76.96
2023-04-01T08:54:35.452Z,77.04
2023-04-01T08:57:15.232Z,78.84
2023-04-01T09:00:18.277Z,77.77
2023-04-01T09:03:43.996Z,76.75
2023-04-01T09:06:36.512Z,77.07
2023-04-01T09:09:42.617Z,79.58
2023-04-01T09:12:32.657Z,79.19
2023-04-01T09:15:18.177Z,79.01
2023-04-01T09:18:22.320Z,79.88
2023-04-01T09:21:21.085Z,79.09
2023-04-01T09:24:23.174Z,78.20
2023-04-01T09:27:12.022Z,78.99
2023-04-01T09:30:26.784Z,79.44
2023-04-01T09:33:11.496Z,78.75
2023-04-01T09:35:46.142Z,78.74
2023-04-01T09:38:24.509Z,77.69
2023-04-01T09:40:59.789Z,77.14
2023-04-01T09:44:04.351Z,76.89
2023-04-01T09:46:59.996Z,78.59
2023-04-01T09:50:01.639Z,78.10
2023-04-01T09:52:43.706Z,77.44
2023-04-01T09:55:55.240Z,76.91
2023-04-01T09:58:48.733Z,77.18
2023-04-01T10:02:19.833Z,78.37
2023-04-01T10:05:24.718Z,79.94
2023-04-01T10:08:32.181Z,82.00
2023-04-01T10:11:17.239Z,80.96
2023-04-01T10:14:20.921Z,82.19
2023-04-01T10:17:17.889Z,81.42
2023-04-01T10:19:59.462Z,80.46
2023-04-01T10:22:54.540Z,79.62
2023-04-01T10:25:55.269Z,81.73
2023-04-01T10:28:48.420Z,79.45
2023-04-01T10:32:13.474Z,76.65
2023-04-01T10:35:15.432Z,76.88
2023-04-01T10:38:11.259Z,76.03
2023-04-01T10:40:55.535Z,75.02
2023-04-01T10:44:01.836Z,77.78
2023-04-01T10:47:11.525Z,78.76
2023-04-01T10:49:58.771Z,78.87
2023-04-01T10:53:06.091Z,77.07
2023-04-01T10:56:23.554Z,76.13
2023-04-01T10:59:52.261Z,76.78
2023-04-01T11:03:40.140Z,74.78
2023-04-01T11:07:14.462Z,76.30
2023-04-01T11:10:13.364Z,75.02
2023-04-01T11:13:10.542Z,75.32
2023-04-01T11:15:55.450Z,74.90
2023-04-01T11:19:04.518Z,74.50
2023-04-01T11:22:12.311Z,75.27
2023-04-01T11:25:20.494Z,75.60
2023-04-01T11:28:42.508Z,75.38
2023-04-01T11:31:39.918Z,76.08
2023-04-01T11:34:19.456Z,76.74
2023-04-01T11:37:00.569Z,76.03
2023-04-01T11:39:39.851Z,76.21
2023-04-01T11:42:46.955Z,75.32
2023-04-01T11:45:38.486Z,74.49
2023-04-01T11:48:45.960Z,76.25
2023-04-01T11:51:45.567Z,78.04
2023-04-01T11:54:30.591Z,79.85
2023-04-01T11:57:14.641Z,83.08
2023-04-01T12:00:36.769Z,79.31
2023-04-01T12:03:19.409Z,78.65
2023-04-01T12:05:52.741Z,77.55
2023-04-01T12:08:33.624Z,77.00
2023-04-01T12:11:09.106Z,79.84
2023-04-01T12:13:48.510Z,78.04
2023-04-01T12:16:33.001Z,79.74
2023-04-01T12:19:11.336Z,79.51
2023-04-01T12:21:45.847Z,78.16
2023-04-01T12:24:43.183Z,75.84
2023-04-01T12:27:33.655Z,76.08
2023-04-01T12:30:17.886Z,76.17
2023-04-01T12:32:54.655Z,77.97
2023-04-01T12:35:26.804Z,76.58
2023-04-01T12:38:08.015Z,75.92
2023-04-01T12:40:53.533Z,75.14
2023-04-01T12:43:58.842Z,76.14
2023-04-01T12:46:34.169Z,76.21
2023-04-01T12:49:18.447Z,76.36
2023-04-01T12:52:00.637Z,75.65
2023-04-01T12:54:54.635Z,75.54
2023-04-01T12:57:45.422Z,76.24
2023-04-01T13:00:41.898Z,77.51
2023-04-01T13:03:39.289Z,79.32
2023-04-01T13:06:28.066Z,78.50
2023-04-01T13:09:06.076Z,77.99
2023-04-01T13:11:47.254Z,77.29
2023-04-01T13:14:37.934Z,76.45
2023-04-01T13:17:16.196Z,76.52
2023-04-01T13:20:04.328Z,75.73
2023-04-01T13:22:47.316Z,76.25
2023-04-01T13:25:28.955Z,75.84
2023-04-01T13:28:05.385Z,75.53
2023-04-01T13:30:41.679Z,77.93
2023-04-01T13:33:28.621Z,78.51
2023-04-01T13:36:09.517Z,80.08
2023-04-01T13:38:59.168Z,79.02
2023-04-01T13:41:45.720Z,77.78
2023-04-01T13:44:17.466Z,79.37
2023-04-01T13:47:14.316Z,82.78
2023-04-01T13:50:07.390Z,80.37
2023-04-01T13:53:06.745Z,80.95
2023-04-01T13:56:04.686Z,81.42
2023-04-01T13:59:05.478Z,80.72
2023-04-01T14:01:43.525Z,81.66
2023-04-01T14:04:36.169Z,81.03
2023-04-01T14:07:16.832Z,81.38
2023-04-01T14:10:10.289Z,82.28
2023-04-01T14:12:45.811Z,80.88
2023-04-01T14:15:39.948Z,80.91
2023-04-01T14:18:49.151Z,80.90
2023-04-01T14:21:27.217Z,81.46
2023-04-01T14:24:16.414Z,79.77
2023-04-01T14:27:18.955Z,80.23
2023-04-01T14:29:59.529Z,81.21
2023-04-01T14:32:37.954Z,79.95
2023-04-01T14:35:25.858Z,79.65
2023-04-01T14:38:28.105Z,77.47
2023-04-01T14:41:08.358Z,79.27
2023-04-01T14:44:12.710Z,78.94
2023-04-01T14:47:31.401Z,78.30
2023-04-01T14:50:11.728Z,79.37
2023-04-01T14:52:44.441Z,80.11
2023-04-01T14:55:28.268Z,80.83
2023-04-01T14:58:11.279Z,80.05
2023-04-01T15:00:51.571Z,79.71
2023-04-01T15:03:26.337Z,80.99
2023-04-01T15:06:03.532Z,80.38
2023-04-01T15:08:34.945Z,80.98
2023-04-01T15:11:29.027Z,80.64
2023-04-01T15:14:16.273Z,81.19
2023-04-01T15:16:57.728Z,81.18
2023-04-01T15:19:41.081Z,80.48
2023-04-01T15:22:33.072Z,80.85
2023-04-01T15:25:18.651Z,81.59
2023-04-01T15:27:51.566Z,80.91
2023-04-01T15:30:32.767Z,81.39
2023-04-01T15:33:11.522Z,81.27
2023-04-01T15:35:48.832Z,79.77
2023-04-01T15:38:29.721Z,80.44
2023-04-01T15:41:08.173Z,80.08
2023-04-01T15:43:43.422Z,80.57
2023-04-01T15:46:26.707Z,80.26
2023-04-01T15:49:05.604Z,80.32
2023-04-01T15:51:51.060Z,80.16
2023-04-01T15:54:54.340Z,82.24
2023-04-01T15:57:40.355Z,81.94
2023-04-01T16:00:25.285Z,80.94
2023-04-01T16:03:11.824Z,81.52
2023-04-01T16:05:54.387Z,80.02
2023-04-01T16:08:41.545Z,81.11
2023-04-01T16:11:21.631Z,82.12
2023-04-01T16:14:01.988Z,79.90
2023-04-01T16:16:41.674Z,80.92
2023-04-01T16:19:27.563Z,81.11
2023-04-01T16:22:02.763Z,81.71
2023-04-01T16:24:37.385Z,83.25
2023-04-01T16:27:11.667Z,83.36
2023-04-01T16:29:50.464Z,82.30
2023-04-01T16:32:36.704Z,81.59
2023-04-01T16:35:25.174Z,80.24
2023-04-01T16:37:58.279Z,80.62
2023-04-01T16:40:42.971Z,80.62
2023-04-01T16:43:18.242Z,80.43
2023-04-01T16:45:59.133Z,80.10
2023-04-01T16:48:36.317Z,81.77
2023-04-01T16:51:13.661Z,81.88
2023-04-01T16:53:45.195Z,81.75
2023-04-01T16:56:18.949Z,82.81
2023-04-01T16:58:59.586Z,81.76
2023-04-01T17:01:33.364Z,81.43
2023-04-01T17:04:09.796Z,82.44
2023-04-01T17:06:44.991Z,81.83
2023-04-01T17:09:28.441Z,82.65
2023-04-01T17:12:03.973Z,83.15
2023-04-01T17:14:41.812Z,83.56
2023-04-01T17:17:36.987Z,81.36
2023-04-01T17:20:17.475Z,82.05
2023-04-01T17:22:54.131Z,83.05
2023-04-01T17:25:34.380Z,83.27
2023-04-01T17:28:16.957Z,82.60
2023-04-01T17:30:52.191Z,83.20
2023-04-01T17:33:39.739Z,82.11
2023-04-01T17:36:18.438Z,82.12
2023-04-01T17:39:04.035Z,83.30
2023-04-01T17:41:43.321Z,82.89
2023-04-01T17:44:28.691Z,82.92
2023-04-01T17:47:12.423Z,83.15
2023-04-01T17:49:49.829Z,83.59
2023-04-01T17:52:26.745Z,84.87
2023-04-01T17:55:01.476Z,83.88
2023-04-01T17:57:48.079Z,84.68
2023-04-01T18:00:27.145Z,83.50
2023-04-01T18:03:09.680Z,83.57
2023-04-01T18:05:59.328Z,83.10
2023-04-01T18:08:44.697Z,83.04
2023-04-01T18:11:23.047Z,82.08
2023-04-01T18:14:19.585Z,82.05
2023-04-01T18:17:03.322Z,83.29
2023-04-01T18:19:45.837Z,83.93
2023-04-01T18:22:23.026Z,83.98
2023-04-01T18:24:59.259Z,82.76
2023-04-01T18:27:33.993Z,82.82
2023-04-01T18:30:10.443Z,81.86
2023-04-01T18:32:45.992Z,83.50
2023-04-01T18:35:24.207Z,82.38
2023-04-01T18:38:01.722Z,83.08
2023-04-01T18:40:35.016Z,82.78
2023-04-01T18:43:14.169Z,83.02
2023-04-01T18:45:48.657Z,81.17
2023-04-01T18:48:30.363Z,81.39
2023-04-01T18:51:03.241Z,81.93
2023-04-01T18:53:40.142Z,81.09
2023-04-01T18:56:10.951Z,83.47
2023-04-01T18:58:49.230Z,82.43
2023-04-01T19:01:29.191Z,81.17
2023-04-01T19:04:06.769Z,82.18
2023-04-01T19:06:42.992Z,82.25
2023-04-01T19:09:28.968Z,81.33
2023-04-01T19:12:24.330Z,82.02
2023-04-01T19:15:11.316Z,82.86
2023-04-01T19:17:50.458Z,83.86
2023-04-01T19:20:26.763Z,82.73
2023-04-01T19:23:25.696Z,80.81
2023-04-01T19:25:57.638Z,81.91
2023-04-01T19:28:37.388Z,80.12
2023-04-01T19:31:16.259Z,79.79
2023-04-01T19:34:00.995Z,80.16
2023-04-01T19:36:36.099Z,81.28
2023-04-01T19:39:29.471Z,81.96
2023-04-01T19:42:05.503Z,81.68
2023-04-01T19:44:43.830Z,80.52
2023-04-01T19:47:21.384Z,83.02
2023-04-01T19:50:01.477Z,80.92
2023-04-01T19:52:34.993Z,81.61
2023-04-01T19:55:13.771Z,80.81
2023-04-01T19:57:49.489Z,81.20
2023-04-01T20:00:25.957Z,80.90
2023-04-01T20:03:07.061Z,81.98
2023-04-01T20:05:48.180Z,81.30
2023-04-01T20:08:24.309Z,81.60
2023-04-01T20:11:04.089Z,81.10
2023-04-01T20:13:47.451Z,82.32
2023-04-01T20:16:16.713Z,82.92
2023-04-01T20:18:53.006Z,83.10
2023-04-01T20:21:32.308Z,83.54
2023-04-01T20:24:04.088Z,82.62
2023-04-01T20:26:36.318Z,85.68
2023-04-01T20:29:33.446Z,84.50
2023-04-01T20:32:08.109Z,83.72
2023-04-01T20:35:10.485Z,83.91
2023-04-01T20:37:44.140Z,84.06
2023-04-01T20:40:26.076Z,82.42
2023-04-01T20:43:10.190Z,82.35
2023-04-01T20:45:48.677Z,82.91
2023-04-01T20:48:44.250Z,83.18
2023-04-01T20:51:17.366Z,83.82
2023-04-01T20:53:52.107Z,82.64
2023-04-01T20:56:35.004Z,83.28
2023-04-01T20:59:19.187Z,82.05
2023-04-01T21:01:53.357Z,81.84
2023-04-01T21:04:28.667Z,83.10
2023-04-01T21:07:13.184Z,82.93
2023-04-01T21:09:55.382Z,82.71
2023-04-01T21:12:32.968Z,81.84
2023-04-01T21:15:39.462Z,82.90
2023-04-01T21:18:32.489Z,84.27
2023-04-01T21:21:26.623Z,83.57
2023-04-01T21:24:45.557Z,84.57
2023-04-01T21:27:20.817Z,83.22
2023-04-01T21:30:02.068Z,82.53
2023-04-01T21:32:43.529Z,83.73
2023-04-01T21:35:29.739Z,81.97
2023-04-01T21:38:12.170Z,82.14
2023-04-01T21:40:56.524Z,81.98
2023-04-01T21:43:48.681Z,82.52
2023-04-01T21:46:49.902Z,83.38
2023-04-01T21:49:36.577Z,83.03
2023-04-01T21:52:33.110Z,81.91
2023-04-01T21:55:31.173Z,82.76
2023-04-01T21:58:30.289Z,81.77
2023-04-01T22:01:13.314Z,82.90
2023-04-01T22:03:57.228Z,83.51
2023-04-01T22:06:30.353Z,83.50
2023-04-01T22:09:06.458Z,82.51
2023-04-01T22:11:45.942Z,82.74
2023-04-01T22:14:22.452Z,83.62
2023-04-01T22:16:56.133Z,82.83
2023-04-01T22:19:31.007Z,81.56
2023-04-01T22:22:06.279Z,82.20
2023-04-01T22:24:53.472Z,82.75
2023-04-01T22:27:29.209Z,82.84
2023-04-01T22:30:08.772Z,81.93
2023-04-01T22:32:44.261Z,81.73
2023-04-01T22:35:25.451Z,82.33
2023-04-01T22:38:03.896Z,81.97
2023-04-01T22:40:41.293Z,82.54
2023-04-01T22:43:13.766Z,82.19
2023-04-01T22:45:58.731Z,81.59
2023-04-01T22:48:34.002Z,80.87
2023-04-01T22:51:09.242Z,81.41
2023-04-01T22:53:49.384Z,80.55
2023-04-01T22:56:23.188Z,81.88
2023-04-01T22:58:57.180Z,81.59
2023-04-01T23:01:30.966Z,81.16
2023-04-01T23:04:01.853Z,81.32
2023-04-01T23:06:35.449Z,81.28
2023-04-01T23:09:16.704Z,80.47
2023-04-01T23:11:53.895Z,80.99
2023-04-01T23:14:48.402Z,81.10
2023-04-01T23:17:42.947Z,80.86
2023-04-01T23:20:24.782Z,81.35
2023-04-01T23:23:04.122Z,80.21
2023-04-01T23:25:43.145Z,80.10
2023-04-01T23:28:34.953Z,80.75
2023-04-01T23:31:03.029Z,81.96
2023-04-01T23:33:32.593Z,80.84
2023-04-01T23:36:06.867Z,80.61
2023-04-01T23:38:39.173Z,80.38
2023-04-01T23:41:08.653Z,80.67
2023-04-01T23:43:40.490Z,80.03
2023-04-01T23:46:09.751Z,80.88
2023-04-01T23:48:40.617Z,81.61
2023-04-01T23:51:16.445Z,80.56
2023-04-01T23:53:47.457Z,80.22
2023-04-01T23:56:18.108Z,79.24
2023-04-01T23:58:53.116Z,79.20
